Time;durP1;ratioP1;P1;durP2;ratioP2;P2;SDS_P1;SDS_P2;PMS_P1;PMS_P2;Temp;Humidity;BMP_temperature;BMP_pressure;BME280_temperature;BME280_humidity;BME280_pressure;Samples;Min_cycle;Max_cycle;Signal;HPM_P1;HPM_P2
2023/04/19 00:00:39;;;;;;;19.73;8.80;;;4.90;99.90;;;;;;5054051;28;20440;-51
2023/04/19 00:03:06;;;;;;;16.83;9.37;;;4.90;99.90;;;;;;5053890;28;20484;-52
2023/04/19 00:05:31;;;;;;;14.93;7.90;;;4.90;99.90;;;;;;5053571;28;20406;-51
2023/04/19 00:07:57;;;;;;;15.60;8.50;;;4.80;99.90;;;;;;5054032;28;20932;-52
2023/04/19 00:10:23;;;;;;;17.80;8.97;;;4.80;99.90;;;;;;5053385;28;20249;-52
2023/04/19 00:12:49;;;;;;;17.07;8.90;;;4.70;99.90;;;;;;5053674;28;20414;-51
2023/04/19 00:15:14;;;;;;;19.17;9.37;;;4.70;99.90;;;;;;5053820;28;20171;-52
2023/04/19 00:17:40;;;;;;;13.13;8.57;;;4.70;99.90;;;;;;5053687;28;20214;-52
2023/04/19 00:20:07;;;;;;;14.80;8.70;;;4.70;99.90;;;;;;5053841;28;20194;-52
2023/04/19 00:22:33;;;;;;;18.03;9.10;;;4.60;99.90;;;;;;5053738;28;20182;-52
2023/04/19 00:24:59;;;;;;;18.40;9.27;;;4.60;99.90;;;;;;5053768;28;20496;-52
2023/04/19 00:27:24;;;;;;;15.40;8.27;;;4.60;99.90;;;;;;5053268;28;20425;-52
2023/04/19 00:29:50;;;;;;;18.43;9.90;;;4.60;99.90;;;;;;5053565;28;20211;-52
2023/04/19 00:32:15;;;;;;;15.10;8.40;;;4.60;99.90;;;;;;5053348;28;20175;-52
2023/04/19 00:34:41;;;;;;;18.73;9.10;;;4.60;99.90;;;;;;5052294;28;20216;-53
2023/04/19 00:37:10;;;;;;;15.17;9.50;;;4.60;1.00;;;;;;5053468;28;20670;-52
2023/04/19 00:39:36;;;;;;;16.23;8.83;;;4.60;1.00;;;;;;5053265;28;20182;-52
2023/04/19 00:42:01;;;;;;;17.07;8.57;;;4.60;1.00;;;;;;5053216;28;20475;-52
2023/04/19 00:44:27;;;;;;;17.10;9.10;;;4.60;1.00;;;;;;5052930;28;20910;-52
2023/04/19 00:46:54;;;;;;;14.33;8.57;;;4.60;1.00;;;;;;5052927;28;20193;-52
2023/04/19 00:49:21;;;;;;;15.47;7.97;;;4.60;1.00;;;;;;5053267;28;20175;-52
2023/04/19 00:51:48;;;;;;;15.70;7.90;;;4.60;1.00;;;;;;5053135;28;20941;-52
2023/04/19 00:54:14;;;;;;;15.10;7.63;;;4.60;1.00;;;;;;5053175;28;20515;-53
2023/04/19 00:56:40;;;;;;;13.93;8.23;;;4.60;1.00;;;;;;5053341;28;20461;-52
2023/04/19 00:59:06;;;;;;;11.27;7.60;;;4.60;1.00;;;;;;5053270;28;20417;-53
2023/04/19 01:01:33;;;;;;;16.90;8.40;;;4.60;1.00;;;;;;5053051;28;20952;-53
2023/04/19 01:03:59;;;;;;;15.97;8.60;;;4.60;99.90;;;;;;5052895;28;20482;-53
2023/04/19 01:06:27;;;;;;;17.10;7.77;;;4.60;99.90;;;;;;5053070;28;20889;-52
2023/04/19 01:08:53;;;;;;;13.03;7.70;;;4.60;99.90;;;;;;5052670;28;20432;-53
2023/04/19 01:11:18;;;;;;;15.20;7.87;;;4.60;99.90;;;;;;5053099;28;20429;-52
2023/04/19 01:13:44;;;;;;;12.60;7.30;;;4.60;99.90;;;;;;5053135;28;20420;-53
2023/04/19 01:16:10;;;;;;;12.33;7.00;;;4.50;99.90;;;;;;5053227;28;20258;-53
2023/04/19 01:18:38;;;;;;;16.60;7.80;;;4.50;99.90;;;;;;5052607;28;20218;-52
2023/04/19 01:21:03;;;;;;;13.87;6.43;;;4.50;99.90;;;;;;5052702;28;20268;-53
2023/04/19 01:23:29;;;;;;;15.83;7.83;;;4.40;99.90;;;;;;5052965;28;20448;-52
2023/04/19 01:25:55;;;;;;;20.47;7.03;;;4.40;99.90;;;;;;5053094;28;20179;-53
2023/04/19 01:28:21;;;;;;;10.77;6.30;;;4.40;99.90;;;;;;5052769;28;20417;-52
2023/04/19 01:30:49;;;;;;;11.43;6.70;;;4.40;99.90;;;;;;5053235;28;20187;-52
2023/04/19 01:33:15;;;;;;;10.70;6.40;;;4.50;99.90;;;;;;5053016;28;20229;-52
2023/04/19 01:35:41;;;;;;;14.30;6.83;;;4.50;99.90;;;;;;5053108;28;20417;-52
2023/04/19 01:38:07;;;;;;;12.10;6.40;;;4.60;99.90;;;;;;5052759;28;20769;-52
2023/04/19 01:40:32;;;;;;;9.97;6.20;;;4.60;99.90;;;;;;5052845;28;20241;-52
2023/04/19 01:42:58;;;;;;;16.03;5.90;;;4.60;99.90;;;;;;5052609;28;20210;-52
2023/04/19 01:45:24;;;;;;;10.38;5.80;;;4.60;99.90;;;;;;5053576;28;20409;-52
2023/04/19 01:47:50;;;;;;;8.70;5.77;;;4.60;99.90;;;;;;5056499;28;20241;-51
2023/04/19 01:50:15;;;;;;;9.47;5.93;;;4.70;99.90;;;;;;5056194;28;20214;-51
2023/04/19 01:52:41;;;;;;;8.63;4.93;;;4.70;99.90;;;;;;5056502;28;20441;-52
2023/04/19 01:55:07;;;;;;;11.97;6.00;;;4.70;93.40;;;;;;5056147;28;20192;-51
2023/04/19 01:57:33;;;;;;;11.60;5.80;;;4.70;88.40;;;;;;5056173;28;20214;-51
2023/04/19 01:59:58;;;;;;;9.53;6.07;;;4.60;86.70;;;;;;5055706;28;20423;-52
2023/04/19 02:02:24;;;;;;;9.57;5.90;;;4.60;78.30;;;;;;5055559;28;20186;-52
2023/04/19 02:04:49;;;;;;;9.57;5.90;;;4.50;95.20;;;;;;5055844;28;20178;-51
2023/04/19 02:07:15;;;;;;;8.13;5.60;;;4.40;99.90;;;;;;5055801;28;20187;-52
2023/04/19 02:09:40;;;;;;;9.60;5.17;;;4.50;99.90;;;;;;5055760;28;20189;-52
2023/04/19 02:12:06;;;;;;;8.60;6.20;;;4.40;99.90;;;;;;5056223;28;20175;-52
2023/04/19 02:14:32;;;;;;;9.93;5.67;;;4.30;99.90;;;;;;5056132;28;20175;-51
2023/04/19 02:16:57;;;;;;;10.27;5.97;;;4.30;99.90;;;;;;5055623;28;20227;-51
2023/04/19 02:19:23;;;;;;;8.93;5.17;;;4.20;99.90;;;;;;5055662;28;20190;-52
2023/04/19 02:21:49;;;;;;;9.60;5.70;;;4.20;99.90;;;;;;5055347;28;20179;-52
2023/04/19 02:24:14;;;;;;;11.23;5.63;;;4.20;99.90;;;;;;5055555;28;20248;-52
2023/04/19 02:26:40;;;;;;;11.03;5.20;;;4.10;99.90;;;;;;5055468;28;20182;-52
2023/04/19 02:29:06;;;;;;;10.53;5.40;;;4.10;99.90;;;;;;5055587;28;20236;-53
2023/04/19 02:31:31;;;;;;;11.13;5.30;;;4.10;99.90;;;;;;5055257;28;20207;-52
2023/04/19 02:33:57;;;;;;;8.97;5.20;;;4.10;99.90;;;;;;5055523;28;20185;-51
2023/04/19 02:36:23;;;;;;;14.03;6.30;;;4.10;99.90;;;;;;5055437;28;20286;-52
2023/04/19 02:38:48;;;;;;;8.50;5.50;;;4.00;99.90;;;;;;5055179;28;20308;-51
2023/04/19 02:41:14;;;;;;;10.10;5.57;;;4.00;99.90;;;;;;5055665;28;20175;-50
2023/04/19 02:43:40;;;;;;;10.73;5.40;;;4.10;99.90;;;;;;5055085;28;20631;-52
2023/04/19 02:46:05;;;;;;;9.90;5.20;;;4.00;99.90;;;;;;5055660;28;20439;-51
2023/04/19 02:48:31;;;;;;;9.70;5.23;;;4.00;99.90;;;;;;5054692;28;20236;-51
2023/04/19 02:50:57;;;;;;;7.37;4.93;;;4.00;99.90;;;;;;5055262;28;20626;-51
2023/04/19 02:53:22;;;;;;;8.73;5.57;;;4.00;99.90;;;;;;5055135;28;20186;-51
2023/04/19 02:55:48;;;;;;;10.07;5.43;;;3.90;99.90;;;;;;5054726;28;20191;-51
2023/04/19 02:58:14;;;;;;;9.70;5.10;;;3.90;1.00;;;;;;5054080;28;20281;-51
2023/04/19 03:00:39;;;;;;;10.00;5.87;;;3.90;1.00;;;;;;5055098;28;20187;-52
2023/04/19 03:03:06;;;;;;;7.40;4.93;;;3.90;1.00;;;;;;5054765;28;20213;-51
2023/04/19 03:05:31;;;;;;;10.07;5.40;;;3.90;1.00;;;;;;5054668;28;20669;-51
2023/04/19 03:07:57;;;;;;;8.80;5.50;;;3.80;1.00;;;;;;5054921;28;20413;-51
2023/04/19 03:10:23;;;;;;;12.83;6.27;;;3.80;1.00;;;;;;5054468;28;20189;-51
2023/04/19 03:12:49;;;;;;;10.93;5.80;;;3.70;1.00;;;;;;5054355;28;20417;-51
2023/04/19 03:15:15;;;;;;;10.33;5.37;;;3.70;1.00;;;;;;5054788;28;20602;-51
2023/04/19 03:17:40;;;;;;;9.00;5.53;;;3.70;1.00;;;;;;5054719;28;20317;-51
2023/04/19 03:20:10;;;;;;;10.13;5.73;;;3.70;1.00;;;;;;5054659;28;20189;-51
2023/04/19 03:22:37;;;;;;;9.33;5.90;;;3.60;1.00;;;;;;5054465;28;20190;-53
2023/04/19 03:25:03;;;;;;;10.47;6.20;;;3.70;1.00;;;;;;5054350;28;20416;-51
2023/04/19 03:27:29;;;;;;;8.27;5.17;;;3.60;1.00;;;;;;5054027;28;20452;-52
2023/04/19 03:29:55;;;;;;;8.30;6.00;;;3.60;1.00;;;;;;5054508;28;20464;-51
2023/04/19 03:32:21;;;;;;;11.83;5.37;;;3.60;1.00;;;;;;5054401;28;20194;-51
2023/04/19 03:34:47;;;;;;;8.73;5.33;;;3.60;1.00;;;;;;5054439;28;20421;-52
2023/04/19 03:37:12;;;;;;;9.07;5.77;;;3.60;1.00;;;;;;5054295;28;20210;-51
2023/04/19 03:39:38;;;;;;;7.90;5.33;;;3.60;1.00;;;;;;5054260;28;20212;-52
2023/04/19 03:42:04;;;;;;;14.07;5.90;;;3.60;1.00;;;;;;5053696;28;20313;-52
2023/04/19 03:44:33;;;;;;;11.67;5.70;;;3.60;1.00;;;;;;5054197;28;20201;-51
2023/04/19 03:46:58;;;;;;;10.43;5.17;;;3.50;1.00;;;;;;5053934;28;20195;-51
2023/04/19 03:49:24;;;;;;;11.53;5.80;;;3.50;1.00;;;;;;5053918;28;20406;-51
2023/04/19 03:51:50;;;;;;;10.57;5.10;;;3.50;1.00;;;;;;5054080;28;20681;-51
2023/04/19 03:54:15;;;;;;;9.83;5.10;;;3.40;1.00;;;;;;5054102;28;20275;-51
2023/04/19 03:56:41;;;;;;;12.53;5.30;;;3.50;1.00;;;;;;5053934;28;20181;-51
2023/04/19 03:59:07;;;;;;;11.10;5.27;;;3.40;1.00;;;;;;5053722;28;20658;-51
2023/04/19 04:01:33;;;;;;;9.37;5.10;;;3.40;1.00;;;;;;5053655;28;20179;-51
2023/04/19 04:03:58;;;;;;;8.17;4.73;;;3.40;1.00;;;;;;5053854;28;20440;-51
2023/04/19 04:06:25;;;;;;;7.17;5.10;;;3.40;1.00;;;;;;5053723;28;20186;-51
2023/04/19 04:08:51;;;;;;;9.20;5.20;;;3.30;1.00;;;;;;5053878;28;20198;-52
2023/04/19 04:11:17;;;;;;;7.93;5.30;;;3.30;1.00;;;;;;5053440;28;20418;-51
2023/04/19 04:13:42;;;;;;;9.23;4.90;;;3.30;1.00;;;;;;5053815;28;20213;-52
2023/04/19 04:16:08;;;;;;;8.87;5.30;;;3.30;1.00;;;;;;5053728;28;20540;-51
2023/04/19 04:18:34;;;;;;;9.13;5.67;;;3.40;1.00;;;;;;5053995;28;20260;-52
2023/04/19 04:20:59;;;;;;;8.10;5.40;;;3.40;1.00;;;;;;5053423;28;20233;-51
2023/04/19 04:23:25;;;;;;;7.33;4.90;;;3.30;1.00;;;;;;5053975;28;20182;-51
2023/04/19 04:26:00;;;;;;;9.70;5.40;;;3.30;1.00;;;;;;5053538;28;20621;-51
2023/04/19 04:28:27;;;;;;;8.40;5.50;;;3.30;1.00;;;;;;5053172;28;20637;-51
2023/04/19 04:30:56;;;;;;;8.20;5.03;;;3.30;1.00;;;;;;5053728;28;20750;-51
2023/04/19 04:33:26;;;;;;;14.53;5.40;;;3.30;1.00;;;;;;5053516;28;20440;-52
2023/04/19 04:35:53;;;;;;;11.33;5.10;;;3.30;1.00;;;;;;5053589;28;20459;-52
2023/04/19 04:38:20;;;;;;;7.23;5.70;;;3.30;1.00;;;;;;5053446;28;20514;-52
2023/04/19 04:40:50;;;;;;;8.93;5.50;;;3.40;1.00;;;;;;5053202;28;20448;-53
2023/04/19 04:43:15;;;;;;;9.53;5.17;;;3.50;1.00;;;;;;5053507;28;20422;-52
2023/04/19 04:45:43;;;;;;;12.53;5.30;;;3.60;1.00;;;;;;5052978;28;20431;-52
2023/04/19 04:48:08;;;;;;;8.10;5.27;;;3.70;1.00;;;;;;5052882;28;20260;-52
2023/04/19 04:50:34;;;;;;;7.87;5.10;;;3.70;1.00;;;;;;5053287;28;20501;-50
2023/04/19 04:52:59;;;;;;;10.90;4.93;;;3.80;1.00;;;;;;5053386;28;20190;-51
2023/04/19 04:55:25;;;;;;;7.40;4.20;;;3.90;1.00;;;;;;5053335;28;20568;-52
2023/04/19 04:57:51;;;;;;;6.73;4.70;;;4.00;99.90;;;;;;5052949;28;20208;-52
2023/04/19 05:00:17;;;;;;;6.50;4.37;;;4.10;99.90;;;;;;5053136;28;20455;-53
2023/04/19 05:02:42;;;;;;;6.30;4.00;;;4.20;99.90;;;;;;5053407;28;20178;-52
2023/04/19 05:05:10;;;;;;;6.77;4.30;;;4.30;99.90;;;;;;5053016;28;20240;-50
2023/04/19 05:07:35;;;;;;;5.67;4.17;;;4.40;99.90;;;;;;5052744;28;20576;-49
2023/04/19 05:10:01;;;;;;;5.10;4.10;;;4.50;99.90;;;;;;5053057;28;20459;-50
2023/04/19 05:12:26;;;;;;;6.80;4.43;;;4.60;99.90;;;;;;5052958;28;20656;-50
2023/04/19 05:14:52;;;;;;;7.03;3.73;;;4.70;99.90;;;;;;5053057;28;20179;-52
2023/04/19 05:17:18;;;;;;;10.07;5.47;;;4.80;99.90;;;;;;5052991;28;20290;-52
2023/04/19 05:19:43;;;;;;;7.13;4.20;;;4.90;99.90;;;;;;5053519;28;20182;-52
2023/04/19 05:22:09;;;;;;;6.77;4.07;;;4.90;89.10;;;;;;5056900;28;20654;-54
2023/04/19 05:24:35;;;;;;;11.70;4.43;;;5.00;34.80;;;;;;5056570;28;20179;-52
2023/04/19 05:27:01;;;;;;;6.13;3.90;;;5.10;12.00;;;;;;5055440;28;20182;-52
2023/04/19 05:29:26;;;;;;;8.73;3.93;;;5.10;1.00;;;;;;5056510;28;20415;-54
2023/04/19 05:31:52;;;;;;;7.60;4.67;;;5.20;1.00;;;;;;5056753;28;20179;-52
2023/04/19 05:34:17;;;;;;;6.10;4.30;;;5.30;1.00;;;;;;5056390;28;20541;-52
2023/04/19 05:36:43;;;;;;;6.77;3.13;;;5.40;1.00;;;;;;5056064;28;20190;-52
2023/04/19 05:39:08;;;;;;;7.63;3.40;;;5.50;1.00;;;;;;5056515;28;20185;-52
2023/04/19 05:41:34;;;;;;;5.83;3.27;;;5.60;1.00;;;;;;5056405;28;20527;-52
2023/04/19 05:43:59;;;;;;;6.67;3.50;;;5.70;1.00;;;;;;5056225;28;20572;-53
2023/04/19 05:46:25;;;;;;;4.83;2.97;;;5.90;1.00;;;;;;5056399;28;20292;-53
2023/04/19 05:48:51;;;;;;;3.43;2.63;;;6.00;1.00;;;;;;5055896;28;20234;-52
2023/04/19 05:51:17;;;;;;;3.17;2.87;;;6.10;1.00;;;;;;5056589;28;20943;-52
2023/04/19 05:53:44;;;;;;;9.83;2.90;;;6.30;1.00;;;;;;5055174;28;20260;-51
2023/04/19 05:56:09;;;;;;;3.20;2.67;;;6.50;1.00;;;;;;5056391;28;20409;-51
2023/04/19 05:58:35;;;;;;;3.83;3.07;;;6.70;1.00;;;;;;5056086;28;20563;-51
2023/04/19 06:01:01;;;;;;;4.40;2.90;;;7.10;1.00;;;;;;5055853;28;20174;-51
2023/04/19 06:03:27;;;;;;;4.23;2.93;;;7.30;1.00;;;;;;5056092;28;20423;-50
2023/04/19 06:05:53;;;;;;;4.07;2.47;;;7.60;1.00;;;;;;5056055;28;20489;-51
2023/04/19 06:08:18;;;;;;;7.10;2.17;;;7.90;1.00;;;;;;5056136;28;20193;-50
2023/04/19 06:10:46;;;;;;;4.87;2.67;;;8.20;1.00;;;;;;5055637;28;20639;-51
2023/04/19 06:13:12;;;;;;;3.57;2.23;;;8.40;1.00;;;;;;5056078;28;20239;-50
2023/04/19 06:15:39;;;;;;;4.73;2.33;;;8.60;1.00;;;;;;5055771;28;20615;-50
2023/04/19 06:18:08;;;;;;;4.10;2.20;;;8.80;1.00;;;;;;5055758;28;20456;-51
2023/04/19 06:20:35;;;;;;;2.17;1.97;;;9.00;1.00;;;;;;5055944;28;20489;-50
2023/04/19 06:23:00;;;;;;;2.80;2.13;;;9.30;1.00;;;;;;5055606;28;20425;-50
2023/04/19 06:25:26;;;;;;;2.97;2.00;;;9.60;1.00;;;;;;5055648;28;20421;-51
2023/04/19 06:27:52;;;;;;;2.00;1.90;;;9.70;1.00;;;;;;5055978;28;20182;-50
2023/04/19 06:30:17;;;;;;;1.90;1.80;;;9.80;1.00;;;;;;5055814;28;20240;-52
2023/04/19 06:32:43;;;;;;;2.17;1.97;;;9.90;1.00;;;;;;5055138;28;20581;-50
2023/04/19 06:35:09;;;;;;;4.77;2.20;;;9.90;1.00;;;;;;5055150;28;20175;-51
2023/04/19 06:37:34;;;;;;;4.43;2.00;;;10.20;1.00;;;;;;5055754;28;20211;-50
2023/04/19 06:40:00;;;;;;;3.33;1.90;;;10.40;1.00;;;;;;5055313;28;20179;-50
2023/04/19 06:42:26;;;;;;;2.43;1.93;;;10.50;1.00;;;;;;5054984;28;20186;-52
2023/04/19 06:44:53;;;;;;;2.47;2.00;;;10.60;1.00;;;;;;5054846;28;20175;-50
2023/04/19 06:47:18;;;;;;;2.53;2.00;;;10.80;1.00;;;;;;5055176;28;20486;-50
2023/04/19 06:49:44;;;;;;;2.20;2.00;;;10.90;1.00;;;;;;5055202;28;20421;-50
2023/04/19 06:52:10;;;;;;;1.90;1.70;;;11.00;1.00;;;;;;5055123;28;20185;-50
2023/04/19 06:54:35;;;;;;;4.63;2.07;;;11.30;1.00;;;;;;5055239;28;20269;-50
2023/04/19 06:57:01;;;;;;;3.60;1.70;;;11.50;1.00;;;;;;5055047;28;20206;-51
2023/04/19 06:59:27;;;;;;;3.47;2.27;;;11.70;1.00;;;;;;5055163;28;20198;-50
2023/04/19 07:01:53;;;;;;;2.50;1.77;;;11.90;1.00;;;;;;5054980;28;20177;-49
2023/04/19 07:04:19;;;;;;;1.77;1.40;;;12.10;1.00;;;;;;5055076;28;20217;-50
2023/04/19 07:06:47;;;;;;;2.17;1.60;;;12.30;1.00;;;;;;5054966;28;20917;-49
2023/04/19 07:09:13;;;;;;;1.90;1.40;;;12.40;1.00;;;;;;5044670;28;20408;-52
2023/04/19 07:11:38;;;;;;;2.60;1.80;;;12.60;1.00;;;;;;5052879;28;20262;-51
2023/04/19 07:14:04;;;;;;;2.10;1.57;;;12.70;1.00;;;;;;5054422;28;20183;-52
2023/04/19 07:16:30;;;;;;;1.97;1.60;;;13.10;1.00;;;;;;5054646;28;20396;-52
2023/04/19 07:18:56;;;;;;;2.28;1.40;;;13.30;1.00;;;;;;5053607;28;20440;-51
2023/04/19 07:21:23;;;;;;;2.67;1.10;;;13.50;1.00;;;;;;5054530;28;20643;-52
2023/04/19 07:23:49;;;;;;;2.60;1.60;;;13.50;1.00;;;;;;5054494;28;20493;-53
2023/04/19 07:26:14;;;;;;;1.30;1.20;;;13.50;1.00;;;;;;5054336;28;20916;-49
2023/04/19 07:28:40;;;;;;;1.90;1.30;;;13.50;1.00;;;;;;5054193;28;20209;-50
2023/04/19 07:31:05;;;;;;;1.30;1.20;;;13.90;1.00;;;;;;5054425;28;20187;-52
2023/04/19 07:33:31;;;;;;;1.83;1.20;;;14.10;1.00;;;;;;5054288;28;20179;-52
2023/04/19 07:35:57;;;;;;;2.33;1.20;;;14.30;1.00;;;;;;5054286;28;20655;-49
2023/04/19 07:38:23;;;;;;;1.60;1.50;;;14.40;1.00;;;;;;5054253;28;20211;-50
2023/04/19 07:40:49;;;;;;;1.63;1.13;;;14.10;1.00;;;;;;5054213;28;20651;-51
2023/04/19 07:43:15;;;;;;;3.65;1.30;;;14.50;1.00;;;;;;5052966;28;20400;-51
2023/04/19 07:45:41;;;;;;;2.30;1.73;;;15.00;1.00;;;;;;5053793;28;20178;-51
2023/04/19 07:48:06;;;;;;;1.37;1.27;;;15.30;1.00;;;;;;5053753;28;20235;-51
2023/04/19 07:50:32;;;;;;;1.30;1.20;;;15.40;1.00;;;;;;5053663;28;20631;-51
2023/04/19 07:52:57;;;;;;;7.90;4.70;;;15.70;1.00;;;;;;5054101;28;20181;-53
2023/04/19 07:55:23;;;;;;;2.97;1.90;;;16.10;1.00;;;;;;5054157;28;20609;-51
2023/04/19 07:57:49;;;;;;;1.70;1.10;;;16.20;1.00;;;;;;5053839;28;20531;-52
2023/04/19 08:00:16;;;;;;;1.77;1.13;;;16.40;1.00;;;;;;5054039;28;20187;-52
2023/04/19 08:02:44;;;;;;;1.30;1.20;;;16.10;1.00;;;;;;5054135;28;20180;-50
2023/04/19 08:05:12;;;;;;;1.53;1.17;;;16.20;1.00;;;;;;5053660;28;20430;-53
2023/04/19 08:07:38;;;;;;;1.20;1.00;;;16.30;1.00;;;;;;5053928;28;20944;-53
2023/04/19 08:10:08;;;;;;;1.50;1.40;;;16.40;1.00;;;;;;5053676;28;20421;-53
2023/04/19 08:12:34;;;;;;;1.20;1.10;;;16.50;1.00;;;;;;5053652;28;20445;-52
2023/04/19 08:14:59;;;;;;;1.10;1.00;;;16.80;1.00;;;;;;5053832;28;20937;-52
2023/04/19 08:17:26;;;;;;;1.70;1.27;;;17.10;1.00;;;;;;5053367;28;20321;-52
2023/04/19 08:19:52;;;;;;;9.23;6.60;;;17.20;1.00;;;;;;5053801;28;20186;-52
2023/04/19 08:22:19;;;;;;;2.33;1.50;;;17.40;1.00;;;;;;5053422;28;20423;-53
2023/04/19 08:24:44;;;;;;;1.10;1.00;;;17.70;1.00;;;;;;5053331;28;20769;-53
2023/04/19 08:27:10;;;;;;;2.80;1.10;;;17.60;1.00;;;;;;5053195;28;20416;-54
2023/04/19 08:29:37;;;;;;;3.23;1.30;;;17.50;1.00;;;;;;5053486;28;20183;-53
2023/04/19 08:32:04;;;;;;;2.80;1.50;;;17.50;1.00;;;;;;5053427;28;20196;-54
2023/04/19 08:34:30;;;;;;;2.80;1.20;;;17.40;1.00;;;;;;5053352;28;20510;-54
2023/04/19 08:36:55;;;;;;;2.37;1.33;;;17.20;1.00;;;;;;5053437;28;20570;-54
2023/04/19 08:39:21;;;;;;;1.40;1.30;;;17.40;1.00;;;;;;5053070;28;20994;-54
2023/04/19 08:41:48;;;;;;;1.10;1.00;;;17.50;1.00;;;;;;5053200;28;20218;-53
2023/04/19 08:44:16;;;;;;;2.60;1.47;;;17.70;1.00;;;;;;5053520;28;20213;-53
2023/04/19 08:46:42;;;;;;;1.67;1.57;;;17.80;1.00;;;;;;5053133;28;20423;-53
2023/04/19 08:49:09;;;;;;;1.60;1.27;;;17.90;1.00;;;;;;5053549;28;20569;-53
2023/04/19 08:51:37;;;;;;;1.90;1.20;;;17.90;99.90;;;;;;5052936;28;20910;-53
2023/04/19 08:54:06;;;;;;;1.77;1.38;;;18.10;99.90;;;;;;5053276;28;20302;-53
2023/04/19 08:56:32;;;;;;;3.10;1.40;;;18.00;99.90;;;;;;5056838;28;20262;-52
2023/04/19 08:58:58;;;;;;;1.53;1.10;;;18.30;99.90;;;;;;5056975;28;20463;-53
2023/04/19 09:01:23;;;;;;;2.20;1.50;;;18.60;99.90;;;;;;5057225;28;20470;-54
2023/04/19 09:03:49;;;;;;;2.40;1.10;;;18.90;99.90;;;;;;5056976;28;20181;-54
2023/04/19 09:06:15;;;;;;;1.87;1.53;;;18.90;99.90;;;;;;5057351;28;20185;-54
2023/04/19 09:08:41;;;;;;;2.67;1.40;;;18.70;99.90;;;;;;5057046;28;20248;-54
2023/04/19 09:11:07;;;;;;;2.20;1.60;;;18.70;99.90;;;;;;5057029;28;20410;-52
2023/04/19 09:13:37;;;;;;;1.70;1.60;;;18.60;99.90;;;;;;5056933;28;20260;-53
2023/04/19 09:16:03;;;;;;;1.50;1.20;;;18.50;99.90;;;;;;5056853;28;20498;-53
2023/04/19 09:18:29;;;;;;;2.10;1.93;;;18.50;99.90;;;;;;5056794;28;20460;-54
2023/04/19 09:20:59;;;;;;;3.57;1.63;;;18.50;99.90;;;;;;5056940;28;20435;-55
2023/04/19 09:23:27;;;;;;;3.20;1.60;;;18.50;99.90;;;;;;5056991;28;20186;-55
2023/04/19 09:26:03;;;;;;;3.10;2.03;;;18.20;99.90;;;;;;5056980;28;20412;-55
2023/04/19 09:28:30;;;;;;;2.73;2.17;;;18.10;1.00;;;;;;5056912;28;20466;-55
2023/04/19 09:30:56;;;;;;;2.00;1.90;;;17.90;99.90;;;;;;5057144;28;20419;-54
2023/04/19 09:33:40;;;;;;;2.90;1.60;;;17.50;99.90;;;;;;5055536;28;20435;-54
2023/04/19 09:36:07;;;;;;;4.37;2.00;;;17.50;99.90;;;;;;5056819;28;20172;-54
2023/04/19 09:38:46;;;;;;;5.17;1.93;;;17.50;99.90;;;;;;5056513;28;20491;-53
2023/04/19 09:41:12;;;;;;;5.70;2.10;;;17.60;99.90;;;;;;5056461;28;20415;-55
2023/04/19 09:43:37;;;;;;;3.10;2.10;;;17.60;99.90;;;;;;5056661;28;20499;-53
2023/04/19 09:46:03;;;;;;;2.83;2.53;;;17.50;99.90;;;;;;5056473;28;20191;-54
2023/04/19 09:48:28;;;;;;;2.87;2.07;;;17.30;99.90;;;;;;5055010;28;20697;-54
2023/04/19 09:50:59;;;;;;;2.57;2.23;;;17.00;99.90;;;;;;5054819;28;20185;-53
2023/04/19 09:53:26;;;;;;;4.20;2.37;;;16.90;99.90;;;;;;5055179;28;20203;-54
2023/04/19 09:55:52;;;;;;;10.90;2.90;;;16.70;99.90;;;;;;5054831;28;20409;-52
2023/04/19 09:58:20;;;;;;;4.00;2.40;;;16.70;99.90;;;;;;5054633;28;20523;-52
2023/04/19 10:00:46;;;;;;;6.77;2.83;;;16.50;99.90;;;;;;5054817;28;20193;-54
2023/04/19 10:03:14;;;;;;;6.27;2.70;;;16.20;99.90;;;;;;5055115;28;20405;-54
2023/04/19 10:05:41;;;;;;;4.83;2.60;;;16.30;99.90;;;;;;5054384;28;20421;-54
2023/04/19 10:08:08;;;;;;;4.80;2.70;;;16.50;99.90;;;;;;5054974;28;20525;-54
2023/04/19 10:10:35;;;;;;;2.60;2.40;;;16.50;99.90;;;;;;5054984;28;20422;-52
2023/04/19 10:13:03;;;;;;;6.03;2.53;;;16.60;99.90;;;;;;5054912;28;20433;-53
2023/04/19 10:15:31;;;;;;;2.37;2.03;;;16.90;99.90;;;;;;5054652;28;20546;-54
2023/04/19 10:17:56;;;;;;;8.50;2.37;;;16.90;99.90;;;;;;5054636;28;20464;-53
2023/04/19 10:20:29;;;;;;;5.63;2.70;;;16.70;99.90;;;;;;5055060;28;20414;-53
2023/04/19 10:22:55;;;;;;;8.23;2.30;;;16.80;99.90;;;;;;5054549;28;20186;-54
2023/04/19 10:25:28;;;;;;;6.10;2.77;;;17.40;99.90;;;;;;5054743;28;20424;-53
2023/04/19 10:27:53;;;;;;;2.90;2.20;;;17.90;99.90;;;;;;5054276;28;20919;-53
2023/04/19 10:30:25;;;;;;;2.83;2.37;;;18.20;99.90;;;;;;5054126;28;20425;-54
2023/04/19 10:32:56;;;;;;;2.57;2.30;;;18.30;99.90;;;;;;5054521;28;20177;-54
2023/04/19 10:35:22;;;;;;;3.77;2.47;;;18.60;99.90;;;;;;5054647;28;20485;-53
2023/04/19 10:38:08;;;;;;;4.20;2.37;;;18.90;99.90;;;;;;5054357;28;20963;-54
2023/04/19 10:40:52;;;;;;;2.50;2.10;;;19.30;99.90;;;;;;5054414;28;20274;-51
2023/04/19 10:43:18;;;;;;;9.63;2.53;;;19.40;99.90;;;;;;5054150;28;20438;-53
2023/04/19 10:45:45;;;;;;;3.30;2.63;;;19.40;99.90;;;;;;5054322;28;20911;-53
2023/04/19 10:48:43;;;;;;;4.00;2.40;;;19.20;99.90;;;;;;5017327;28;1072882;-53
2023/04/19 10:51:26;;;;;;;3.03;2.30;;;18.90;99.90;;;;;;5055405;28;20180;-55
2023/04/19 10:54:06;;;;;;;5.43;2.50;;;19.00;99.90;;;;;;5055337;28;20408;-53
2023/04/19 10:56:31;;;;;;;3.30;2.70;;;19.00;99.90;;;;;;5054929;28;20430;-50
2023/04/19 10:59:13;;;;;;;2.27;2.07;;;18.80;99.90;;;;;;5054638;28;20468;-52
2023/04/19 11:01:50;;;;;;;8.43;2.70;;;18.20;99.90;;;;;;5055210;28;20181;-52
2023/04/19 11:04:39;;;;;;;3.30;2.77;;;18.40;99.90;;;;;;5055018;28;20408;-53
2023/04/19 11:07:06;;;;;;;5.80;2.47;;;18.70;99.90;;;;;;5043945;28;20779;-52
2023/04/19 11:09:43;;;;;;;4.22;2.30;;;19.10;99.90;;;;;;5053439;28;20883;-52
2023/04/19 11:12:13;;;;;;;5.70;2.50;;;19.40;99.90;;;;;;5055043;28;20601;-50
2023/04/19 11:14:43;;;;;;;7.10;2.93;;;19.80;99.90;;;;;;5053979;28;20411;-51
2023/04/19 11:17:24;;;;;;;3.10;2.50;;;19.60;99.90;;;;;;5053043;28;20924;-52
2023/04/19 11:20:07;;;;;;;5.90;2.50;;;19.50;99.90;;;;;;5054763;28;20495;-51
2023/04/19 11:22:40;;;;;;;4.03;2.67;;;19.30;99.90;;;;;;5054627;28;20421;-52
2023/04/19 11:25:20;;;;;;;4.80;2.87;;;19.30;99.90;;;;;;5054265;28;20426;-53
2023/04/19 11:27:48;;;;;;;8.30;2.50;;;19.70;99.90;;;;;;5054045;28;20439;-51
2023/04/19 11:30:21;;;;;;;9.93;6.83;;;19.40;99.90;;;;;;5054276;28;20767;-53
2023/04/19 11:32:48;;;;;;;7.63;3.47;;;19.70;99.90;;;;;;5054487;28;20420;-52
2023/04/19 11:35:17;;;;;;;7.67;2.43;;;20.20;99.90;;;;;;5054009;28;20945;-51
2023/04/19 11:37:42;;;;;;;6.77;2.90;;;19.90;99.90;;;;;;5054283;28;20551;-52
2023/04/19 11:40:08;;;;;;;5.33;2.70;;;19.70;99.90;;;;;;5054285;28;20521;-51
2023/04/19 11:42:34;;;;;;;3.90;2.40;;;19.70;99.90;;;;;;5053849;28;20185;-53
2023/04/19 11:45:00;;;;;;;6.90;2.47;;;19.90;99.90;;;;;;5054207;28;20190;-52
2023/04/19 11:47:26;;;;;;;2.90;2.50;;;20.30;99.90;;;;;;5053944;28;20828;-51
2023/04/19 11:49:55;;;;;;;8.93;2.43;;;20.20;99.90;;;;;;5054069;28;20197;-52
2023/04/19 11:52:25;;;;;;;3.37;2.27;;;20.10;99.90;;;;;;5054333;28;20185;-52
2023/04/19 11:54:54;;;;;;;4.20;2.63;;;20.30;99.90;;;;;;5053926;28;20430;-52
2023/04/19 11:57:29;;;;;;;10.50;3.10;;;20.20;99.90;;;;;;5053894;28;20459;-54
2023/04/19 12:00:10;;;;;;;4.80;2.70;;;20.20;99.90;;;;;;5054047;28;20423;-52
2023/04/19 12:02:41;;;;;;;4.90;2.67;;;20.00;99.90;;;;;;5053732;28;20503;-52
2023/04/19 12:05:11;;;;;;;7.53;2.80;;;19.70;99.90;;;;;;5053946;28;20447;-53
2023/04/19 12:07:36;;;;;;;8.23;2.60;;;19.90;99.90;;;;;;5054024;28;20449;-53
2023/04/19 12:10:11;;;;;;;16.43;12.77;;;20.10;99.90;;;;;;5054155;28;20444;-52
2023/04/19 12:12:38;;;;;;;34.33;25.77;;;20.30;99.90;;;;;;5053815;28;20182;-51
2023/04/19 12:15:05;;;;;;;9.43;5.53;;;19.80;99.90;;;;;;5053779;28;20478;-52
2023/04/19 12:17:30;;;;;;;163.70;145.57;;;19.60;99.90;;;;;;5053171;28;20998;-51
2023/04/19 12:19:56;;;;;;;11.33;9.13;;;19.80;99.90;;;;;;5053803;28;20520;-51
2023/04/19 12:22:24;;;;;;;3.20;2.80;;;20.00;99.90;;;;;;5053686;28;20182;-52
2023/04/19 12:24:52;;;;;;;5.47;2.70;;;19.90;99.90;;;;;;5053812;28;20185;-51
2023/04/19 12:27:17;;;;;;;7.97;2.97;;;20.00;99.90;;;;;;5053860;28;20504;-51
2023/04/19 12:29:43;;;;;;;4.03;2.40;;;20.20;99.90;;;;;;5053440;28;20858;-52
2023/04/19 12:32:09;;;;;;;6.53;2.67;;;20.20;99.90;;;;;;5053161;28;20191;-52
2023/04/19 12:34:35;;;;;;;5.43;2.93;;;20.50;99.90;;;;;;5053009;28;20184;-52
2023/04/19 12:37:02;;;;;;;2.97;2.30;;;19.70;99.90;;;;;;5052945;28;20476;-51
2023/04/19 12:39:28;;;;;;;5.00;2.73;;;19.10;99.90;;;;;;5053301;28;20196;-51
2023/04/19 12:41:54;;;;;;;3.47;2.67;;;19.00;99.90;;;;;;5053425;28;20416;-51
2023/04/19 12:44:19;;;;;;;4.53;2.30;;;18.40;99.90;;;;;;5053301;28;20178;-51
2023/04/19 12:46:45;;;;;;;4.90;2.53;;;18.40;99.90;;;;;;5053091;28;20655;-52
2023/04/19 12:49:10;;;;;;;8.27;2.53;;;18.40;99.90;;;;;;5053378;28;20209;-52
2023/04/19 12:51:36;;;;;;;4.87;2.30;;;18.70;99.90;;;;;;5051570;28;20181;-51